Erie, Illinois
Current Conditions -  °F | °C
As of 8:15 PM on Sunday 25 Jan 2015 (Local Time) from KCWI Reporting Station
Clear Clear  
Wind Chill:   Ceiling: Unl
Heat Index: 16°   Visibility: 10mi
Dew Point: 10°   Wind: 9mph
Humidity: 79%   Direction: 350°N
Pressure: 30.07"   Gusts: NA
Location:  41.66°N, 90.08°W
Report Text: KCWI 260215Z AUTO 35008KT 10SM CLR M09/M12 A3007 RMK AO1
Loading
Personal Weather Stations






























Interactive Weather Map New forecast layout! Learn more

10-Day Weather Forecast

Advertisements
Track Severe Weather on mobile